createdAt,value
2018-03-14T00:00:36.360Z,91.60
2018-03-14T00:03:02.475Z,91.80
2018-03-14T00:05:28.643Z,91.70
2018-03-14T00:07:54.881Z,91.70
2018-03-14T00:10:21.280Z,91.60
2018-03-14T00:12:47.465Z,91.50
2018-03-14T00:15:13.633Z,91.60
2018-03-14T00:17:39.768Z,91.40
2018-03-14T00:20:05.914Z,91.50
2018-03-14T00:22:32.155Z,91.60
2018-03-14T00:24:58.300Z,91.50
2018-03-14T00:27:24.448Z,91.50
2018-03-14T00:29:51.368Z,91.40
2018-03-14T00:32:17.568Z,91.30
2018-03-14T00:34:43.745Z,91.30
2018-03-14T00:37:09.912Z,91.40
2018-03-14T00:39:36.076Z,91.10
2018-03-14T00:42:02.340Z,91.30
2018-03-14T00:44:28.460Z,91.10
2018-03-14T00:46:54.627Z,91.30
2018-03-14T00:49:20.777Z,91.10
2018-03-14T00:51:46.994Z,91.20
2018-03-14T00:54:13.117Z,91.20
2018-03-14T00:56:40.013Z,91.30
2018-03-14T00:59:06.182Z,91.30
2018-03-14T01:01:32.305Z,91.10
2018-03-14T01:03:58.519Z,91.40
2018-03-14T01:06:24.641Z,91.20
2018-03-14T01:08:50.780Z,91.10
2018-03-14T01:11:17.001Z,91.50
2018-03-14T01:13:43.881Z,91.20
2018-03-14T01:16:10.005Z,91.20
2018-03-14T01:18:36.882Z,91.10
2018-03-14T01:21:03.034Z,91.10
2018-03-14T01:23:29.179Z,91.10
2018-03-14T01:25:55.449Z,91.10
2018-03-14T01:28:21.691Z,91.00
2018-03-14T01:30:47.840Z,90.90
2018-03-14T01:33:13.968Z,91.00
2018-03-14T01:35:40.095Z,91.10
2018-03-14T01:38:06.226Z,91.00
2018-03-14T01:40:32.399Z,90.90
2018-03-14T01:42:58.506Z,91.00
2018-03-14T01:45:24.702Z,91.20
2018-03-14T01:47:50.859Z,91.00
2018-03-14T01:50:17.148Z,91.00
2018-03-14T01:52:43.280Z,91.20
2018-03-14T01:55:09.418Z,90.90
2018-03-14T01:57:35.563Z,90.80
2018-03-14T02:00:01.743Z,90.90
2018-03-14T02:02:27.868Z,90.90
2018-03-14T02:04:54.764Z,91.00
2018-03-14T02:07:20.920Z,91.00
2018-03-14T02:09:47.113Z,91.20
2018-03-14T02:12:13.257Z,90.70
2018-03-14T02:14:39.399Z,90.70
2018-03-14T02:17:05.552Z,90.90
2018-03-14T02:19:31.719Z,90.80
2018-03-14T02:21:57.879Z,90.70
2018-03-14T02:24:24.008Z,90.80
2018-03-14T02:26:50.166Z,90.80
2018-03-14T02:29:16.304Z,91.00
2018-03-14T02:31:43.165Z,90.80
2018-03-14T02:34:09.302Z,91.10
2018-03-14T02:36:47.574Z,91.20
2018-03-14T02:39:13.712Z,91.20
2018-03-14T02:41:39.830Z,91.00
2018-03-14T02:44:05.990Z,91.10
2018-03-14T02:46:32.126Z,90.80
2018-03-14T02:48:58.237Z,90.80
2018-03-14T02:51:25.115Z,91.00
2018-03-14T02:53:51.272Z,91.00
2018-03-14T02:56:17.434Z,91.10
2018-03-14T02:58:43.557Z,91.00
2018-03-14T03:01:09.692Z,91.10
2018-03-14T03:03:35.877Z,91.00
2018-03-14T03:06:02.185Z,90.90
2018-03-14T03:08:28.561Z,90.90
2018-03-14T03:10:54.753Z,90.80
2018-03-14T03:13:20.896Z,90.90
2018-03-14T03:15:47.018Z,90.90
2018-03-14T03:18:13.124Z,90.90
2018-03-14T03:20:39.264Z,91.00
2018-03-14T03:23:05.377Z,91.00
2018-03-14T03:25:31.526Z,91.00
2018-03-14T03:27:57.622Z,91.10
2018-03-14T03:30:23.761Z,91.10
2018-03-14T03:32:49.892Z,91.10
2018-03-14T03:35:16.066Z,91.10
2018-03-14T03:37:42.245Z,91.10
2018-03-14T03:40:09.086Z,91.10
2018-03-14T03:42:35.213Z,91.10
2018-03-14T03:45:01.743Z,91.10
2018-03-14T03:47:27.886Z,90.90
2018-03-14T03:49:53.986Z,90.90
2018-03-14T03:52:20.247Z,90.90
2018-03-14T03:54:46.410Z,91.00
2018-03-14T03:57:12.548Z,91.00
2018-03-14T03:59:38.647Z,91.10
2018-03-14T04:02:04.808Z,91.20
2018-03-14T04:04:30.971Z,91.10
2018-03-14T04:06:57.142Z,91.10
2018-03-14T04:09:24.040Z,90.90
2018-03-14T04:11:50.157Z,90.90
2018-03-14T04:14:16.487Z,91.00
2018-03-14T04:16:42.624Z,90.90
2018-03-14T04:19:08.861Z,90.50
2018-03-14T04:21:35.178Z,90.80
2018-03-14T04:24:02.458Z,90.50
2018-03-14T04:26:29.045Z,90.70
2018-03-14T04:28:55.489Z,90.70
2018-03-14T04:31:21.632Z,90.50
2018-03-14T04:33:47.812Z,90.60
2018-03-14T04:36:13.996Z,90.70
2018-03-14T04:38:40.160Z,90.60
2018-03-14T04:41:06.405Z,90.40
2018-03-14T04:43:32.535Z,90.40
2018-03-14T04:45:58.682Z,90.80
2018-03-14T04:48:24.802Z,90.60
2018-03-14T04:50:50.954Z,90.70
2018-03-14T04:53:17.105Z,90.70
2018-03-14T04:55:43.253Z,90.70
2018-03-14T04:58:09.419Z,90.50
2018-03-14T05:00:35.580Z,90.70
2018-03-14T05:03:02.845Z,90.50
2018-03-14T05:05:29.231Z,90.50
2018-03-14T05:07:55.529Z,90.30
2018-03-14T05:10:21.773Z,90.40
2018-03-14T05:12:51.893Z,90.20
2018-03-14T05:15:18.332Z,90.50
2018-03-14T05:17:44.492Z,90.30
2018-03-14T05:20:10.668Z,90.70
2018-03-14T05:22:36.844Z,90.30
2018-03-14T05:25:03.016Z,90.40
2018-03-14T05:27:29.176Z,90.10
2018-03-14T05:29:55.537Z,90.70
2018-03-14T05:32:21.754Z,90.40
2018-03-14T05:34:48.166Z,90.40
2018-03-14T05:37:14.460Z,90.40
2018-03-14T05:39:40.683Z,90.40
2018-03-14T05:42:06.994Z,90.40
2018-03-14T05:44:33.148Z,90.60
2018-03-14T05:46:59.448Z,90.50
2018-03-14T05:49:25.616Z,90.40
2018-03-14T05:51:52.560Z,90.50
2018-03-14T05:54:18.793Z,90.50
2018-03-14T05:56:45.026Z,90.30
2018-03-14T05:59:11.318Z,90.40
2018-03-14T06:01:38.330Z,90.50
2018-03-14T06:04:05.324Z,90.70
2018-03-14T06:06:31.615Z,90.70
2018-03-14T06:08:57.798Z,90.60
2018-03-14T06:11:24.714Z,90.70
2018-03-14T06:13:51.655Z,90.60
2018-03-14T06:16:18.233Z,90.60
2018-03-14T06:18:44.481Z,90.50
2018-03-14T06:21:10.605Z,90.70
2018-03-14T06:23:36.834Z,90.40
2018-03-14T06:26:03.104Z,90.60
2018-03-14T06:28:31.192Z,90.70
2018-03-14T06:30:58.477Z,90.70
2018-03-14T06:33:25.358Z,90.90
2018-03-14T06:39:00.647Z,91.00
2018-03-14T06:41:26.999Z,91.20
2018-03-14T06:43:53.327Z,91.20
2018-03-14T06:46:20.059Z,91.20
2018-03-14T06:49:07.515Z,91.40
2018-03-14T06:51:51.978Z,91.40
2018-03-14T06:54:18.303Z,91.40
2018-03-14T06:56:45.379Z,91.40
2018-03-14T06:59:23.806Z,91.40
2018-03-14T07:07:34.642Z,91.10
2018-03-14T07:10:00.951Z,90.50
2018-03-14T07:12:27.320Z,90.30
2018-03-14T07:14:53.707Z,90.30
2018-03-14T07:17:19.889Z,90.30
2018-03-14T07:19:46.100Z,90.60
2018-03-14T07:22:12.321Z,90.10
2018-03-14T07:24:39.599Z,90.10
2018-03-14T07:27:05.769Z,90.10
2018-03-14T07:29:32.026Z,90.20
2018-03-14T07:31:58.232Z,90.30
2018-03-14T07:34:24.401Z,90.00
2018-03-14T07:36:50.601Z,89.70
2018-03-14T07:39:16.820Z,89.80
2018-03-14T07:41:43.744Z,89.00
2018-03-14T07:44:10.005Z,88.90
2018-03-14T07:46:36.265Z,88.50
2018-03-14T07:49:02.674Z,88.50
2018-03-14T07:51:29.206Z,87.80
2018-03-14T07:53:55.513Z,87.60
2018-03-14T07:56:21.661Z,86.50
2018-03-14T07:58:47.820Z,85.80
2018-03-14T08:01:14.020Z,85.60
2018-03-14T08:03:40.921Z,84.90
2018-03-14T08:06:07.103Z,84.90
2018-03-14T08:08:33.249Z,85.10
2018-03-14T08:10:59.437Z,84.50
2018-03-14T08:13:48.030Z,84.50
2018-03-14T08:16:14.104Z,84.10
2018-03-14T08:18:40.359Z,84.30
2018-03-14T08:21:07.608Z,85.40
2018-03-14T08:23:34.517Z,85.10
2018-03-14T08:26:00.776Z,85.10
2018-03-14T08:28:26.909Z,85.00
2018-03-14T08:30:53.095Z,85.10
2018-03-14T08:33:20.022Z,84.50
2018-03-14T08:35:46.212Z,84.40
2018-03-14T08:38:12.666Z,84.10
2018-03-14T08:40:38.912Z,84.40
2018-03-14T08:43:05.139Z,84.70
2018-03-14T08:45:31.368Z,82.80
2018-03-14T08:47:57.516Z,82.70
2018-03-14T08:50:23.711Z,82.50
2018-03-14T08:52:49.857Z,82.70
2018-03-14T08:55:16.026Z,82.30
2018-03-14T08:57:42.254Z,82.60
2018-03-14T09:00:09.265Z,79.50
2018-03-14T09:02:35.483Z,79.50
2018-03-14T09:05:01.746Z,78.50
2018-03-14T09:07:27.995Z,79.10
2018-03-14T09:09:54.168Z,76.60
2018-03-14T09:12:21.637Z,78.20
2018-03-14T09:14:48.566Z,75.50
2018-03-14T09:17:14.710Z,76.20
2018-03-14T09:19:40.923Z,77.10
2018-03-14T09:22:09.174Z,79.10
2018-03-14T09:24:35.330Z,77.80
2018-03-14T09:27:01.501Z,74.70
2018-03-14T09:29:27.766Z,76.40
2018-03-14T09:31:54.061Z,75.00
2018-03-14T09:34:20.217Z,74.30
2018-03-14T09:36:46.436Z,72.70
2018-03-14T09:39:12.577Z,73.10
2018-03-14T09:41:38.764Z,72.40
2018-03-14T09:44:04.992Z,72.60
2018-03-14T09:46:31.253Z,74.40
2018-03-14T09:48:57.405Z,72.70
2018-03-14T09:51:24.402Z,72.70
2018-03-14T09:53:50.592Z,72.10
2018-03-14T09:56:16.823Z,73.40
2018-03-14T09:58:42.996Z,72.90
2018-03-14T10:01:09.251Z,71.60
2018-03-14T10:03:35.550Z,73.60
2018-03-14T10:06:01.810Z,72.50
2018-03-14T10:08:28.051Z,71.20
2018-03-14T10:10:54.159Z,70.40
2018-03-14T10:13:20.269Z,68.10
2018-03-14T10:15:46.416Z,66.80
2018-03-14T10:18:12.554Z,72.20
2018-03-14T10:20:38.714Z,69.10
2018-03-14T10:23:04.847Z,68.20
2018-03-14T10:25:31.067Z,69.30
2018-03-14T10:27:57.220Z,67.00
2018-03-14T10:30:23.408Z,68.40
2018-03-14T10:32:50.303Z,68.20
2018-03-14T10:35:16.531Z,68.70
2018-03-14T10:37:43.432Z,67.80
2018-03-14T10:40:09.574Z,67.90
2018-03-14T10:42:35.699Z,67.20
2018-03-14T10:45:02.080Z,65.70
2018-03-14T10:47:28.185Z,67.00
2018-03-14T10:49:54.908Z,66.00
2018-03-14T10:52:21.068Z,67.50
2018-03-14T10:54:47.165Z,66.40
2018-03-14T10:57:14.062Z,68.20
2018-03-14T10:59:40.303Z,67.00
2018-03-14T11:02:12.519Z,66.70
2018-03-14T11:04:38.660Z,67.50
2018-03-14T11:07:04.862Z,64.10
2018-03-14T11:09:30.971Z,65.00
2018-03-14T11:11:57.842Z,63.30
2018-03-14T11:14:23.971Z,63.40
2018-03-14T11:16:51.187Z,66.40
2018-03-14T11:19:17.442Z,66.30
2018-03-14T11:21:44.247Z,65.00
2018-03-14T11:24:11.028Z,65.00
2018-03-14T11:26:37.380Z,68.40
2018-03-14T11:29:03.488Z,64.60
2018-03-14T11:31:29.685Z,64.70
2018-03-14T11:33:55.985Z,63.20
2018-03-14T11:36:23.063Z,62.40
2018-03-14T11:38:50.160Z,64.50
2018-03-14T11:41:16.832Z,64.50
2018-03-14T11:43:43.500Z,63.50
2018-03-14T11:46:09.636Z,61.70
2018-03-14T11:48:35.838Z,65.50
2018-03-14T11:51:03.518Z,63.10
2018-03-14T11:53:31.018Z,64.00
2018-03-14T11:55:57.340Z,64.00
2018-03-14T11:58:23.500Z,59.70
2018-03-14T12:00:50.119Z,59.40
2018-03-14T12:03:16.434Z,59.10
2018-03-14T12:05:43.671Z,60.50
2018-03-14T12:08:09.909Z,59.20
2018-03-14T12:10:37.032Z,62.30
2018-03-14T12:13:03.621Z,61.20
2018-03-14T12:15:30.616Z,60.00
2018-03-14T12:17:58.143Z,59.20
2018-03-14T13:21:58.511Z,52.90
2018-03-14T13:24:24.743Z,53.10
2018-03-14T13:26:51.618Z,54.70
2018-03-14T13:29:17.764Z,54.60
2018-03-14T13:31:43.962Z,54.50
2018-03-14T13:36:41.491Z,53.90
2018-03-14T13:39:08.439Z,50.70
2018-03-14T13:41:35.365Z,50.40
2018-03-14T13:44:01.772Z,50.40
2018-03-14T13:46:28.004Z,50.70
2018-03-14T13:48:54.435Z,50.00
2018-03-14T13:51:20.906Z,50.40
2018-03-14T13:53:47.062Z,49.50
2018-03-14T13:56:13.188Z,49.80
2018-03-14T13:58:39.615Z,49.90
2018-03-14T14:01:05.770Z,50.30
2018-03-14T14:03:31.897Z,52.10
2018-03-14T14:05:58.048Z,50.50
2018-03-14T14:08:24.159Z,50.30
2018-03-14T14:10:51.015Z,52.30
2018-03-14T14:13:17.951Z,50.70
2018-03-14T14:15:44.049Z,50.60
2018-03-14T14:18:10.237Z,51.60
2018-03-14T14:20:37.393Z,51.50
2018-03-14T14:23:03.593Z,53.00
2018-03-14T14:25:29.740Z,52.80
2018-03-14T14:27:56.198Z,52.30
2018-03-14T14:30:22.360Z,52.90
2018-03-14T14:32:48.619Z,53.40
2018-03-14T14:35:14.750Z,53.50
2018-03-14T14:37:41.622Z,52.10
2018-03-14T14:40:08.491Z,52.00
2018-03-14T14:42:34.592Z,52.00
2018-03-14T14:45:01.004Z,51.70
2018-03-14T14:47:27.160Z,51.50
2018-03-14T14:49:53.372Z,52.20
2018-03-14T14:52:19.581Z,51.60
2018-03-14T14:54:45.733Z,52.80
2018-03-14T14:57:12.228Z,53.30
2018-03-14T14:59:38.369Z,53.60
2018-03-14T15:02:04.512Z,53.40
2018-03-14T15:04:30.974Z,53.80
2018-03-14T15:06:57.916Z,53.70
2018-03-14T15:09:24.083Z,53.70
2018-03-14T15:11:50.236Z,53.40
2018-03-14T15:14:16.461Z,51.80
2018-03-14T15:16:43.366Z,51.70
2018-03-14T15:19:09.725Z,51.60
2018-03-14T15:21:35.972Z,50.60
2018-03-14T15:24:02.058Z,50.40
2018-03-14T15:26:28.230Z,50.00
2018-03-14T15:28:54.391Z,49.40
2018-03-14T15:31:20.517Z,50.20
2018-03-14T15:33:47.059Z,49.50
2018-03-14T15:36:13.237Z,49.50
2018-03-14T15:38:39.407Z,49.60
2018-03-14T15:41:05.547Z,50.30
2018-03-14T15:43:31.838Z,50.40
2018-03-14T15:45:58.021Z,50.40
2018-03-14T15:48:24.200Z,50.40
2018-03-14T15:50:50.380Z,50.40
2018-03-14T15:53:16.717Z,49.10
2018-03-14T15:55:42.886Z,48.00
2018-03-14T15:58:09.115Z,48.80
2018-03-14T16:00:35.949Z,49.00
2018-03-14T16:03:02.148Z,49.00
2018-03-14T16:05:28.288Z,45.90
2018-03-14T16:07:54.476Z,41.30
2018-03-14T16:10:21.424Z,39.10
2018-03-14T16:12:47.593Z,38.60
2018-03-14T16:15:13.804Z,36.80
2018-03-14T16:17:39.957Z,35.90
2018-03-14T16:20:06.889Z,35.40
2018-03-14T16:22:33.086Z,35.30
2018-03-14T16:24:59.234Z,35.40
2018-03-14T16:27:25.359Z,36.80
2018-03-14T16:29:51.506Z,36.80
2018-03-14T16:32:17.658Z,37.60
2018-03-14T16:34:43.868Z,38.80
2018-03-14T16:37:18.712Z,39.70
2018-03-14T16:39:46.596Z,43.20
2018-03-14T16:42:13.318Z,43.20
2018-03-14T16:44:40.305Z,45.80
2018-03-14T16:47:07.187Z,48.70
2018-03-14T16:49:34.135Z,49.60
2018-03-14T16:52:00.319Z,49.60
2018-03-14T16:54:26.496Z,50.20
2018-03-14T16:56:53.369Z,51.50
2018-03-14T16:59:19.501Z,51.50
2018-03-14T17:01:45.673Z,51.80
2018-03-14T17:04:12.138Z,52.20
2018-03-14T17:06:38.977Z,53.30
2018-03-14T17:09:05.184Z,53.30
2018-03-14T17:11:31.346Z,54.10
2018-03-14T17:13:57.941Z,54.60
2018-03-14T17:16:24.888Z,55.90
2018-03-14T17:18:51.013Z,55.80
2018-03-14T17:21:17.148Z,56.30
2018-03-14T17:23:43.305Z,56.70
2018-03-14T17:26:09.682Z,56.70
2018-03-14T17:28:37.133Z,57.50
2018-03-14T17:31:03.289Z,57.10
2018-03-14T17:33:30.178Z,58.60
2018-03-14T17:51:08.589Z,58.90
2018-03-14T17:53:34.742Z,59.40
2018-03-14T17:56:00.865Z,59.80
2018-03-14T17:58:27.776Z,59.80
2018-03-14T18:00:54.769Z,60.20
2018-03-14T18:03:20.868Z,60.20
2018-03-14T18:05:47.006Z,60.40
2018-03-14T18:08:13.916Z,60.30
2018-03-14T18:10:40.342Z,60.50
2018-03-14T18:13:06.532Z,60.80
2018-03-14T18:15:32.729Z,60.90
2018-03-14T18:17:59.258Z,60.80
2018-03-14T18:20:25.488Z,61.10
2018-03-14T18:22:52.450Z,61.20
2018-03-14T18:25:19.400Z,61.60
2018-03-14T18:27:46.264Z,62.00
2018-03-14T18:30:13.160Z,62.30
2018-03-14T18:32:40.038Z,62.10
2018-03-14T18:35:06.144Z,62.10
2018-03-14T18:37:32.313Z,62.20
2018-03-14T18:39:58.428Z,63.20
2018-03-14T18:42:24.589Z,62.20
2018-03-14T18:44:50.704Z,62.30
2018-03-14T18:47:16.954Z,62.80
2018-03-14T18:49:43.159Z,62.50
2018-03-14T18:52:11.055Z,62.50
2018-03-14T18:54:37.249Z,62.60
2018-03-14T18:57:03.401Z,62.40
2018-03-14T18:59:30.319Z,63.00
2018-03-14T19:01:56.425Z,63.00
2018-03-14T19:04:22.560Z,62.90
2018-03-14T19:06:48.719Z,63.40
2018-03-14T19:09:14.935Z,63.20
2018-03-14T19:11:41.037Z,63.30
2018-03-14T19:14:07.180Z,63.60
2018-03-14T19:16:33.329Z,63.60
2018-03-14T19:18:59.463Z,63.90
2018-03-14T19:21:25.613Z,63.90
2018-03-14T19:23:52.556Z,64.70
2018-03-14T19:26:18.770Z,64.70
2018-03-14T19:28:44.908Z,64.80
2018-03-14T19:31:11.039Z,65.00
2018-03-14T19:33:37.231Z,65.30
2018-03-14T19:36:03.487Z,65.40
2018-03-14T19:38:29.892Z,65.70
2018-03-14T19:40:56.070Z,66.20
2018-03-14T19:43:22.224Z,66.30
2018-03-14T19:45:48.620Z,66.20
2018-03-14T19:48:14.909Z,66.40
2018-03-14T19:50:41.132Z,66.50
2018-03-14T19:53:08.061Z,66.90
2018-03-14T19:55:34.324Z,66.80
2018-03-14T19:58:00.716Z,66.90
2018-03-14T20:00:26.872Z,67.10
2018-03-14T20:02:53.095Z,67.40
2018-03-14T20:05:19.253Z,67.50
2018-03-14T20:07:45.404Z,67.90
2018-03-14T20:10:11.561Z,68.30
2018-03-14T20:12:38.457Z,68.20
2018-03-14T20:15:04.610Z,69.00
2018-03-14T20:17:30.767Z,68.50
2018-03-14T20:19:56.892Z,68.50
2018-03-14T20:22:23.061Z,68.80
2018-03-14T20:24:49.319Z,68.70
2018-03-14T20:27:16.260Z,68.90
2018-03-14T20:29:42.417Z,68.90
2018-03-14T20:32:08.586Z,69.00
2018-03-14T20:34:35.464Z,68.90
2018-03-14T20:37:01.616Z,68.90
2018-03-14T20:39:27.793Z,69.00
2018-03-14T20:41:53.937Z,69.10
2018-03-14T20:44:20.146Z,69.30
2018-03-14T20:46:46.272Z,69.20
2018-03-14T20:49:14.900Z,69.10
2018-03-14T20:51:42.427Z,69.30
2018-03-14T20:54:10.005Z,69.20
2018-03-14T20:56:36.281Z,69.30
2018-03-14T20:59:02.514Z,69.50
2018-03-14T21:01:29.149Z,69.60
2018-03-14T21:03:55.269Z,69.50
2018-03-14T21:06:21.466Z,69.40
2018-03-14T21:08:47.774Z,69.60
2018-03-14T21:11:13.897Z,70.50
2018-03-14T21:13:41.585Z,69.80
2018-03-14T21:16:07.733Z,69.60
2018-03-14T21:18:33.992Z,69.80
2018-03-14T21:21:00.168Z,69.80
2018-03-14T21:23:31.018Z,69.90
2018-03-14T21:25:57.505Z,69.70
2018-03-14T21:28:24.148Z,69.70
2018-03-14T21:30:50.265Z,69.70
2018-03-14T21:33:16.517Z,69.60
2018-03-14T21:35:43.404Z,70.00
2018-03-14T21:38:09.541Z,70.20
2018-03-14T21:40:35.805Z,70.30
2018-03-14T21:43:06.391Z,69.90
2018-03-14T21:45:33.452Z,69.80
2018-03-14T21:47:59.624Z,69.70
2018-03-14T21:50:26.248Z,69.60
2018-03-14T21:52:52.594Z,69.70
2018-03-14T21:55:31.189Z,69.70
2018-03-14T21:57:57.330Z,69.70
2018-03-14T22:00:24.204Z,69.70
2018-03-14T22:02:50.798Z,69.70
2018-03-14T22:05:17.024Z,70.40
2018-03-14T22:07:43.173Z,69.50
2018-03-14T22:10:09.275Z,69.70
2018-03-14T22:12:35.508Z,69.80
2018-03-14T22:15:02.548Z,69.90
2018-03-14T22:17:28.659Z,69.50
2018-03-14T22:19:54.828Z,69.50
2018-03-14T22:22:20.926Z,69.90
2018-03-14T22:24:47.092Z,69.80
2018-03-14T22:27:14.018Z,70.00
2018-03-14T22:29:40.173Z,70.00
2018-03-14T22:32:07.879Z,70.20
2018-03-14T22:34:34.414Z,70.20
2018-03-14T22:37:01.341Z,70.40
2018-03-14T22:39:28.177Z,70.70
2018-03-14T22:41:56.993Z,70.80
2018-03-14T22:44:23.124Z,70.80
2018-03-14T22:46:51.232Z,71.40
2018-03-14T22:49:17.855Z,70.70
2018-03-14T22:51:44.117Z,71.00
2018-03-14T22:54:10.378Z,71.60
2018-03-14T22:56:36.521Z,71.40
2018-03-14T22:59:02.652Z,71.40
2018-03-14T23:01:28.894Z,71.00
2018-03-14T23:03:59.832Z,71.00
2018-03-14T23:06:25.988Z,71.00
2018-03-14T23:08:52.879Z,71.00
2018-03-14T23:11:28.649Z,71.00
2018-03-14T23:13:55.124Z,71.30
2018-03-14T23:16:21.255Z,71.10
2018-03-14T23:18:48.221Z,71.30
2018-03-14T23:21:15.029Z,71.60
2018-03-14T23:23:41.154Z,71.50
2018-03-14T23:26:08.034Z,71.80
2018-03-14T23:28:34.184Z,71.80
2018-03-14T23:31:00.614Z,71.50
2018-03-14T23:33:26.723Z,72.00
2018-03-14T23:35:52.833Z,72.20
2018-03-14T23:38:18.964Z,72.10
2018-03-14T23:40:45.067Z,72.50
2018-03-14T23:43:11.168Z,72.70
2018-03-14T23:45:37.296Z,72.40
2018-03-14T23:48:03.437Z,72.60
2018-03-14T23:50:29.593Z,72.60
2018-03-14T23:52:55.714Z,72.40
2018-03-14T23:55:21.850Z,72.80
2018-03-14T23:57:47.990Z,72.90
